createdAt,value
2023-05-07T00:02:26.445Z,76765.66
2023-05-07T00:04:53.048Z,76757.50
2023-05-07T00:07:19.445Z,76769.75
2023-05-07T00:09:45.800Z,76767.72
2023-05-07T00:12:12.156Z,76767.72
2023-05-07T00:14:38.613Z,76771.78
2023-05-07T00:17:05.049Z,76771.78
2023-05-07T00:19:31.403Z,76761.59
2023-05-07T00:21:57.854Z,76761.59
2023-05-07T00:24:24.208Z,76763.63
2023-05-07T00:26:51.053Z,76765.66
2023-05-07T00:29:17.427Z,76767.72
2023-05-07T00:31:43.839Z,76767.72
2023-05-07T00:34:10.286Z,76769.75
2023-05-07T00:36:36.641Z,76771.78
2023-05-07T00:39:04.407Z,76767.72
2023-05-07T00:41:33.688Z,76767.72
2023-05-07T00:44:00.059Z,76771.78
2023-05-07T00:46:26.875Z,76775.88
2023-05-07T00:48:54.498Z,76769.75
2023-05-07T00:51:21.024Z,76773.81
2023-05-07T00:53:47.588Z,76773.81
2023-05-07T00:56:14.054Z,76767.72
2023-05-07T00:58:41.651Z,76773.81
2023-05-07T01:01:08.532Z,76765.66
2023-05-07T01:03:34.960Z,76767.72
2023-05-07T01:06:03.418Z,76771.78
2023-05-07T01:08:31.376Z,76777.91
2023-05-07T01:10:58.270Z,76777.91
2023-05-07T01:13:25.493Z,76786.06
2023-05-07T01:15:52.240Z,76777.91
2023-05-07T01:18:18.934Z,76775.88
2023-05-07T01:20:46.097Z,76775.88
2023-05-07T01:23:13.254Z,76786.06
2023-05-07T01:25:39.770Z,76786.06
2023-05-07T01:28:07.313Z,76788.09
2023-05-07T01:30:37.193Z,76794.22
2023-05-07T01:33:14.455Z,76782.00
2023-05-07T01:35:48.299Z,76786.06
2023-05-07T01:38:15.222Z,76786.06
2023-05-07T01:40:42.263Z,76773.81
2023-05-07T01:43:09.807Z,76782.00
2023-05-07T01:45:37.301Z,76792.19
2023-05-07T01:48:04.634Z,76788.09
2023-05-07T01:50:32.670Z,76794.22
2023-05-07T01:52:59.129Z,76796.25
2023-05-07T01:55:25.638Z,76790.16
2023-05-07T01:57:52.010Z,76790.16
2023-05-07T02:00:19.908Z,76790.16
2023-05-07T02:02:46.563Z,76790.16
2023-05-07T02:05:28.391Z,76796.25
2023-05-07T02:08:10.645Z,76788.09
2023-05-07T02:10:37.519Z,76800.34
2023-05-07T02:13:05.962Z,76798.31
2023-05-07T02:15:32.384Z,76796.25
2023-05-07T02:18:10.050Z,76796.25
2023-05-07T02:20:36.687Z,76792.19
2023-05-07T02:23:03.258Z,76792.19
2023-05-07T02:25:31.013Z,76792.19
2023-05-07T02:27:57.877Z,76794.22
2023-05-07T02:30:33.997Z,76788.09
2023-05-07T02:33:00.552Z,76800.34
2023-05-07T02:35:27.475Z,76790.16
2023-05-07T02:37:54.008Z,76792.19
2023-05-07T02:40:21.094Z,76800.34
2023-05-07T02:42:47.608Z,76800.34
2023-05-07T02:45:15.293Z,76798.31
2023-05-07T02:47:42.606Z,76802.38
2023-05-07T02:50:09.566Z,76798.31
2023-05-07T02:52:36.368Z,76798.31
2023-05-07T02:55:03.468Z,76790.16
2023-05-07T02:57:29.913Z,76798.31
2023-05-07T02:59:58.795Z,76794.22
2023-05-07T03:02:25.719Z,76796.25
2023-05-07T03:04:52.670Z,76802.38
2023-05-07T03:07:19.003Z,76806.47
2023-05-07T03:09:45.443Z,76808.50
2023-05-07T03:12:12.205Z,76802.38
2023-05-07T03:14:38.541Z,76806.47
2023-05-07T03:17:04.962Z,76806.47
2023-05-07T03:19:31.618Z,76810.53
2023-05-07T03:21:58.381Z,76810.53
2023-05-07T03:24:24.704Z,76814.63
2023-05-07T03:26:51.013Z,76822.78
2023-05-07T03:29:17.402Z,76820.72
2023-05-07T03:31:44.631Z,76826.84
2023-05-07T03:34:11.057Z,76822.78
2023-05-07T03:36:37.609Z,76822.78
2023-05-07T03:39:11.262Z,76826.84
2023-05-07T03:41:40.167Z,76820.72
2023-05-07T03:44:06.887Z,76818.69
2023-05-07T03:46:34.341Z,76822.78
2023-05-07T03:49:01.157Z,76824.81
2023-05-07T03:51:27.952Z,76824.81
2023-05-07T03:53:54.512Z,76820.72
2023-05-07T03:56:22.080Z,76826.84
2023-05-07T03:58:55.058Z,76818.69
2023-05-07T04:01:21.514Z,76824.81
2023-05-07T04:03:48.467Z,76828.88
2023-05-07T04:06:16.833Z,76826.84
2023-05-07T04:08:45.199Z,76830.94
2023-05-07T04:11:11.774Z,76832.97
2023-05-07T04:13:38.141Z,76832.97
2023-05-07T04:16:06.881Z,76835.00
2023-05-07T04:18:35.590Z,76839.09
2023-05-07T04:21:02.096Z,76835.00
2023-05-07T04:23:28.433Z,76837.03
2023-05-07T04:25:56.886Z,76841.13
2023-05-07T04:28:29.406Z,76841.13
2023-05-07T04:30:55.856Z,76843.16
2023-05-07T04:33:22.721Z,76841.13
2023-05-07T04:35:50.329Z,76841.13
2023-05-07T04:38:17.364Z,76845.19
2023-05-07T04:40:44.652Z,76853.34
2023-05-07T04:43:15.051Z,76849.28
2023-05-07T04:45:46.681Z,76859.47
2023-05-07T04:48:15.485Z,76859.47
2023-05-07T04:50:42.214Z,76853.34
2023-05-07T04:53:09.024Z,76845.19
2023-05-07T04:55:35.525Z,76855.41
2023-05-07T04:58:02.890Z,76845.19
2023-05-07T05:00:32.009Z,76863.56
2023-05-07T05:02:59.113Z,76857.44
2023-05-07T05:05:25.543Z,76855.41
2023-05-07T05:07:54.049Z,76861.50
2023-05-07T05:10:24.660Z,76857.44
2023-05-07T05:12:51.805Z,76861.50
2023-05-07T05:15:18.511Z,76845.19
2023-05-07T05:17:45.312Z,76855.41
2023-05-07T05:20:12.834Z,76853.34
2023-05-07T05:22:42.188Z,76849.28
2023-05-07T05:25:09.205Z,76861.50
2023-05-07T05:27:36.197Z,76855.41
2023-05-07T05:30:02.859Z,76843.16
2023-05-07T05:32:30.985Z,76835.00
2023-05-07T05:34:57.670Z,76845.19
2023-05-07T05:37:24.562Z,76841.13
2023-05-07T05:39:51.647Z,76822.78
2023-05-07T05:42:18.932Z,76818.69
2023-05-07T05:44:45.399Z,76806.47
2023-05-07T05:47:12.260Z,76794.22
2023-05-07T05:49:38.810Z,76786.06
2023-05-07T05:52:06.561Z,76782.00
2023-05-07T05:54:33.742Z,76777.91
2023-05-07T05:57:00.284Z,76765.66
2023-05-07T05:59:27.281Z,76745.28
2023-05-07T06:01:54.041Z,76737.13
2023-05-07T06:04:20.437Z,76733.03
2023-05-07T06:06:47.061Z,76728.97
2023-05-07T06:09:13.941Z,76735.09
2023-05-07T06:11:43.361Z,76739.16
2023-05-07T06:14:10.963Z,76733.03
2023-05-07T06:16:38.972Z,76726.94
2023-05-07T06:19:06.913Z,76737.13
2023-05-07T06:21:33.912Z,76728.97
2023-05-07T06:24:00.411Z,76722.84
2023-05-07T06:26:27.277Z,76720.81
2023-05-07T06:28:53.743Z,76718.78
2023-05-07T06:31:21.530Z,76718.78
2023-05-07T06:33:56.288Z,76722.84
2023-05-07T06:36:25.560Z,76722.84
2023-05-07T06:38:53.794Z,76714.69
2023-05-07T06:41:21.499Z,76712.66
2023-05-07T06:43:47.935Z,76696.34
2023-05-07T06:46:28.052Z,76704.50
2023-05-07T06:48:54.500Z,76696.34
2023-05-07T06:51:20.892Z,76696.34
2023-05-07T06:53:47.356Z,76694.31
2023-05-07T06:56:13.790Z,76688.19
2023-05-07T06:58:40.208Z,76692.25
2023-05-07T07:01:07.535Z,76692.25
2023-05-07T07:03:35.170Z,76690.22
2023-05-07T07:06:03.019Z,76680.03
2023-05-07T07:08:29.823Z,76663.72
2023-05-07T07:10:56.553Z,76661.69
2023-05-07T07:13:23.422Z,76663.72
2023-05-07T07:15:50.099Z,76643.31
2023-05-07T07:18:17.748Z,76645.38
2023-05-07T07:20:46.235Z,76637.22
2023-05-07T07:23:13.695Z,76641.28
2023-05-07T07:25:40.242Z,76624.97
2023-05-07T07:28:07.105Z,76629.06
2023-05-07T07:30:33.583Z,76622.94
2023-05-07T07:33:03.463Z,76612.75
2023-05-07T07:35:33.848Z,76600.50
2023-05-07T07:38:00.608Z,76580.13
2023-05-07T07:40:27.033Z,76580.13
2023-05-07T07:42:55.220Z,76580.13
2023-05-07T07:45:22.506Z,76574.00
2023-05-07T07:47:50.667Z,76571.97
2023-05-07T07:50:31.677Z,76571.97
2023-05-07T07:53:04.434Z,76571.97
2023-05-07T07:55:32.041Z,76565.84
2023-05-07T07:58:00.754Z,76569.91
2023-05-07T08:00:27.152Z,76567.88
2023-05-07T08:02:56.449Z,76551.56
2023-05-07T08:05:27.923Z,76545.44
2023-05-07T08:07:55.086Z,76537.28
2023-05-07T08:10:26.406Z,76551.56
2023-05-07T08:12:58.941Z,76555.66
2023-05-07T08:15:25.400Z,76559.72
2023-05-07T08:17:51.957Z,76557.69
2023-05-07T08:20:18.805Z,76557.69
2023-05-07T08:22:45.350Z,76545.44
2023-05-07T08:25:11.941Z,76545.44
2023-05-07T08:27:38.404Z,76537.28
2023-05-07T08:30:05.745Z,76531.19
2023-05-07T08:32:32.272Z,76533.22
2023-05-07T08:34:58.742Z,76510.78
2023-05-07T08:37:25.314Z,76520.97
2023-05-07T08:39:51.737Z,76529.13
2023-05-07T08:42:24.710Z,76523.03
2023-05-07T08:44:54.121Z,76531.19
2023-05-07T08:47:24.182Z,76533.22
2023-05-07T08:49:52.663Z,76525.06
2023-05-07T08:52:20.888Z,76533.22
2023-05-07T08:54:47.497Z,76535.25
2023-05-07T08:57:14.221Z,76537.28
2023-05-07T08:59:41.847Z,76525.06
2023-05-07T09:02:11.442Z,76512.81
2023-05-07T09:04:39.031Z,76506.72
2023-05-07T09:07:06.335Z,76490.41
2023-05-07T09:09:36.328Z,76484.28
2023-05-07T09:12:04.804Z,76478.16
2023-05-07T09:14:33.722Z,76480.19
2023-05-07T09:17:01.125Z,76467.97
2023-05-07T09:19:28.468Z,76467.97
2023-05-07T09:22:05.715Z,76459.81
2023-05-07T09:24:48.662Z,76457.78
2023-05-07T09:27:15.807Z,76451.66
2023-05-07T09:29:45.250Z,76457.78
2023-05-07T09:32:13.174Z,76447.56
2023-05-07T09:34:39.767Z,76443.50
2023-05-07T09:37:08.384Z,76439.41
2023-05-07T09:39:42.384Z,76421.06
2023-05-07T09:42:09.829Z,76417.00
2023-05-07T09:44:37.176Z,76404.75
2023-05-07T09:47:07.018Z,76374.19
2023-05-07T09:49:43.120Z,76357.88
2023-05-07T09:52:14.074Z,76347.66
2023-05-07T09:54:48.334Z,76343.59
2023-05-07T09:57:18.940Z,76337.47
2023-05-07T09:59:50.201Z,76323.19
2023-05-07T10:02:20.688Z,76317.09
2023-05-07T10:04:51.612Z,76300.78
2023-05-07T10:07:23.697Z,76296.69
2023-05-07T10:09:54.915Z,76280.38
2023-05-07T10:12:39.770Z,76255.91
2023-05-07T10:15:12.786Z,76249.81
2023-05-07T10:17:42.477Z,76260.00
2023-05-07T10:20:10.769Z,76262.03
2023-05-07T10:22:44.024Z,76247.75
2023-05-07T10:25:18.741Z,76231.44
2023-05-07T10:27:49.098Z,76221.25
2023-05-07T10:30:15.754Z,76213.09
2023-05-07T10:32:51.630Z,76209.03
2023-05-07T10:35:30.393Z,76202.91
2023-05-07T10:37:57.816Z,76209.03
2023-05-07T10:40:27.001Z,76209.03
2023-05-07T10:43:00.444Z,76200.88
2023-05-07T10:45:29.782Z,76182.53
2023-05-07T10:48:20.861Z,76176.41
2023-05-07T10:51:19.815Z,76156.00
2023-05-07T10:53:46.686Z,76143.78
2023-05-07T10:56:18.479Z,76129.50
2023-05-07T10:58:50.704Z,76119.31
2023-05-07T11:02:08.502Z,76111.16
2023-05-07T11:05:19.594Z,76137.66
2023-05-07T11:07:56.242Z,76135.63
2023-05-07T11:10:54.975Z,76139.69
2023-05-07T11:13:47.103Z,76147.84
2023-05-07T11:16:30.951Z,76133.59
2023-05-07T11:19:05.576Z,76129.50
2023-05-07T11:21:42.556Z,76113.19
2023-05-07T11:24:19.929Z,76098.94
2023-05-07T11:26:54.346Z,76084.66
2023-05-07T11:29:23.364Z,76090.78
2023-05-07T11:31:55.973Z,76074.47
2023-05-07T11:34:27.187Z,76064.25
2023-05-07T11:36:56.701Z,76045.91
2023-05-07T11:39:36.769Z,76029.59
2023-05-07T11:42:03.401Z,76009.22
2023-05-07T11:44:46.860Z,75994.94
2023-05-07T11:47:18.820Z,76007.19
2023-05-07T11:49:48.828Z,76019.41
2023-05-07T11:52:15.862Z,76017.38
2023-05-07T11:54:42.270Z,76005.16
2023-05-07T11:57:15.667Z,75994.94
2023-05-07T11:59:42.109Z,76001.06
2023-05-07T12:02:09.151Z,75978.63
2023-05-07T12:04:35.705Z,75978.63
2023-05-07T12:07:02.097Z,75970.47
2023-05-07T12:09:28.470Z,75974.56
2023-05-07T12:11:56.957Z,75962.34
2023-05-07T12:14:23.287Z,75986.78
2023-05-07T12:16:49.784Z,75992.91
2023-05-07T12:19:16.280Z,76003.09
2023-05-07T12:21:42.904Z,76003.09
2023-05-07T12:24:09.278Z,75999.03
2023-05-07T12:26:39.298Z,75986.78
2023-05-07T12:29:05.742Z,75997.00
2023-05-07T12:31:32.255Z,76013.28
2023-05-07T12:33:58.667Z,76013.28
2023-05-07T12:36:25.691Z,76017.38
2023-05-07T12:38:52.231Z,76019.41
2023-05-07T12:41:19.220Z,76039.81
2023-05-07T12:43:46.550Z,76043.88
2023-05-07T12:46:14.683Z,76047.97
2023-05-07T12:48:46.438Z,76052.03
2023-05-07T12:51:14.477Z,76045.91
2023-05-07T12:53:44.870Z,76045.91
2023-05-07T12:56:11.362Z,76045.91
2023-05-07T12:58:37.972Z,76054.06
2023-05-07T13:01:10.686Z,76060.19
2023-05-07T13:03:38.984Z,76060.19
2023-05-07T13:06:10.290Z,76070.38
2023-05-07T13:08:38.647Z,76066.31
2023-05-07T13:11:05.783Z,76064.25
2023-05-07T13:13:33.306Z,76080.56
2023-05-07T13:16:01.184Z,76088.72
2023-05-07T13:18:28.189Z,76092.81
2023-05-07T13:20:54.857Z,76096.88
2023-05-07T13:23:21.442Z,76098.94
2023-05-07T13:25:49.092Z,76103.00
2023-05-07T13:28:17.037Z,76109.13
2023-05-07T13:30:43.724Z,76119.31
2023-05-07T13:33:10.381Z,76129.50
2023-05-07T13:35:36.885Z,76125.44
2023-05-07T13:38:03.353Z,76135.63
2023-05-07T13:40:29.800Z,76145.81
2023-05-07T13:42:59.370Z,76158.06
2023-05-07T13:45:30.394Z,76166.22
2023-05-07T13:47:58.018Z,76174.38
2023-05-07T13:50:24.669Z,76170.28
2023-05-07T13:52:53.976Z,76174.38
2023-05-07T13:55:25.302Z,76182.53
2023-05-07T13:57:59.229Z,76186.59
2023-05-07T14:00:27.339Z,76196.78
2023-05-07T14:02:54.598Z,76194.75
2023-05-07T14:05:21.209Z,76196.78
2023-05-07T14:07:48.614Z,76204.94
2023-05-07T14:10:15.422Z,76213.09
2023-05-07T14:12:42.194Z,76213.09
2023-05-07T14:15:09.119Z,76217.19
2023-05-07T14:17:35.665Z,76221.25
2023-05-07T14:20:02.174Z,76221.25
2023-05-07T14:22:28.583Z,76223.28
2023-05-07T14:25:05.833Z,76225.34
2023-05-07T14:27:32.832Z,76235.53
2023-05-07T14:29:59.312Z,76264.06
2023-05-07T14:32:25.775Z,76274.28
2023-05-07T14:34:52.248Z,76288.53
2023-05-07T14:37:20.676Z,76313.00
2023-05-07T14:39:49.784Z,76325.25
2023-05-07T14:42:16.741Z,76337.47
2023-05-07T14:44:43.236Z,76339.50
2023-05-07T14:47:09.755Z,76359.91
2023-05-07T14:49:36.448Z,76363.97
2023-05-07T14:52:03.347Z,76372.13
2023-05-07T14:54:29.933Z,76380.28
2023-05-07T14:56:56.751Z,76380.28
2023-05-07T14:59:25.750Z,76386.41
2023-05-07T15:01:52.246Z,76398.66
2023-05-07T15:04:18.919Z,76398.66
2023-05-07T15:06:45.398Z,76396.59
2023-05-07T15:09:11.796Z,76400.69
2023-05-07T15:11:38.293Z,76406.81
2023-05-07T15:14:04.872Z,76417.00
2023-05-07T15:16:31.341Z,76417.00
2023-05-07T15:18:57.750Z,76421.06
2023-05-07T15:21:24.313Z,76427.19
2023-05-07T15:23:50.737Z,76425.16
2023-05-07T15:26:17.102Z,76421.06
2023-05-07T15:28:43.531Z,76421.06
2023-05-07T15:31:10.079Z,76408.84
2023-05-07T15:33:36.504Z,76417.00
2023-05-07T15:36:04.090Z,76410.88
2023-05-07T15:38:30.912Z,76406.81
2023-05-07T15:40:57.299Z,76404.75
2023-05-07T15:43:23.783Z,76402.72
2023-05-07T15:45:50.323Z,76398.66
2023-05-07T15:48:16.826Z,76394.56
2023-05-07T15:50:43.468Z,76386.41
2023-05-07T15:53:10.414Z,76380.28
2023-05-07T15:55:36.842Z,76380.28
2023-05-07T15:58:04.986Z,76374.19
2023-05-07T16:00:31.354Z,76372.13
2023-05-07T16:02:58.078Z,76368.06
2023-05-07T16:05:24.732Z,76359.91
2023-05-07T16:07:51.149Z,76357.88
2023-05-07T16:10:17.579Z,76355.81
2023-05-07T16:12:44.197Z,76353.78
2023-05-07T16:15:11.411Z,76347.66
2023-05-07T16:17:38.194Z,76353.78
2023-05-07T16:20:06.381Z,76353.78
2023-05-07T16:22:33.069Z,76343.59
2023-05-07T16:24:59.485Z,76345.63
2023-05-07T16:27:26.253Z,76333.41
2023-05-07T16:29:52.830Z,76327.28
2023-05-07T16:32:19.335Z,76333.41
2023-05-07T16:34:46.386Z,76325.25
2023-05-07T16:37:13.325Z,76327.28
2023-05-07T16:39:39.820Z,76319.13
2023-05-07T16:42:06.210Z,76319.13
2023-05-07T16:44:32.570Z,76325.25
2023-05-07T16:46:58.952Z,76331.34
2023-05-07T16:49:25.361Z,76319.13
2023-05-07T16:51:51.718Z,76323.19
2023-05-07T16:54:18.075Z,76343.59
2023-05-07T16:56:44.435Z,76347.66
2023-05-07T16:59:10.927Z,76347.66
2023-05-07T17:01:37.387Z,76355.81
2023-05-07T17:04:03.998Z,76366.03
2023-05-07T17:06:31.602Z,76368.06
2023-05-07T17:08:58.240Z,76368.06
2023-05-07T17:11:28.241Z,76368.06
2023-05-07T17:13:54.776Z,76376.22
2023-05-07T17:16:21.209Z,76382.34
2023-05-07T17:18:47.584Z,76386.41
2023-05-07T17:21:13.951Z,76388.44
2023-05-07T17:23:40.429Z,76398.66
2023-05-07T17:26:13.759Z,76398.66
2023-05-07T17:28:40.219Z,76402.72
2023-05-07T17:31:06.765Z,76404.75
2023-05-07T17:33:33.195Z,76417.00
2023-05-07T17:36:02.836Z,76414.94
2023-05-07T17:38:30.426Z,76421.06
2023-05-07T17:40:58.432Z,76421.06
2023-05-07T17:43:25.024Z,76423.13
2023-05-07T17:45:51.612Z,76429.22
2023-05-07T17:48:18.367Z,76437.38
2023-05-07T17:50:45.251Z,76441.47
2023-05-07T17:53:12.144Z,76449.63
2023-05-07T17:55:43.488Z,76443.50
2023-05-07T17:58:09.966Z,76455.72
2023-05-07T18:00:36.566Z,76455.72
2023-05-07T18:03:03.574Z,76463.88
2023-05-07T18:05:30.489Z,76470.00
2023-05-07T18:07:56.991Z,76470.00
2023-05-07T18:10:23.494Z,76482.25
2023-05-07T18:12:49.949Z,76480.19
2023-05-07T18:15:16.361Z,76488.34
2023-05-07T18:17:42.793Z,76492.44
2023-05-07T18:20:11.461Z,76492.44
2023-05-07T18:22:38.776Z,76502.63
2023-05-07T18:25:05.927Z,76502.63
2023-05-07T18:27:32.322Z,76506.72
2023-05-07T18:29:58.710Z,76512.81
2023-05-07T18:32:25.242Z,76514.88
2023-05-07T18:34:52.866Z,76510.78
2023-05-07T18:37:29.990Z,76516.91
2023-05-07T18:39:57.123Z,76518.94
2023-05-07T18:42:23.486Z,76520.97
2023-05-07T18:44:50.367Z,76523.03
2023-05-07T18:47:17.115Z,76523.03
2023-05-07T18:49:43.489Z,76525.06
2023-05-07T18:52:09.861Z,76531.19
2023-05-07T18:54:36.267Z,76539.34
2023-05-07T18:57:02.963Z,76543.41
2023-05-07T18:59:29.686Z,76549.53
2023-05-07T19:01:56.223Z,76553.59
2023-05-07T19:04:24.322Z,76557.69
2023-05-07T19:06:50.780Z,76567.88
2023-05-07T19:09:17.213Z,76576.03
2023-05-07T19:11:43.678Z,76567.88
2023-05-07T19:14:11.098Z,76574.00
2023-05-07T19:16:37.755Z,76580.13
2023-05-07T19:19:05.537Z,76580.13
2023-05-07T19:21:32.022Z,76586.22
2023-05-07T19:23:58.389Z,76594.38
2023-05-07T19:26:25.005Z,76604.59
2023-05-07T19:29:01.696Z,76608.66
2023-05-07T19:31:39.405Z,76612.75
2023-05-07T19:34:05.792Z,76618.84
2023-05-07T19:36:34.370Z,76620.91
2023-05-07T19:39:00.991Z,76629.06
2023-05-07T19:41:28.297Z,76639.25
2023-05-07T19:43:54.718Z,76653.53
2023-05-07T19:46:21.203Z,76659.63
2023-05-07T19:48:47.616Z,76673.91
2023-05-07T19:51:14.035Z,76675.94
2023-05-07T19:53:40.534Z,76690.22
2023-05-07T19:56:08.415Z,76698.38
2023-05-07T19:58:35.647Z,76700.41
2023-05-07T20:01:03.419Z,76708.56
2023-05-07T20:03:31.361Z,76712.66
2023-05-07T20:05:57.947Z,76710.63
2023-05-07T20:08:24.628Z,76710.63
2023-05-07T20:10:51.533Z,76718.78
2023-05-07T20:13:18.512Z,76724.88
2023-05-07T20:15:45.089Z,76737.13
2023-05-07T20:18:11.576Z,76745.28
2023-05-07T20:20:37.954Z,76745.28
2023-05-07T20:23:04.324Z,76755.47
2023-05-07T20:25:30.797Z,76755.47
2023-05-07T20:27:57.349Z,76765.66
2023-05-07T20:30:24.509Z,76765.66
2023-05-07T20:32:51.091Z,76767.72
2023-05-07T20:35:22.485Z,76773.81
2023-05-07T20:37:48.898Z,76784.03
2023-05-07T20:40:15.718Z,76782.00
2023-05-07T20:42:42.625Z,76788.09
2023-05-07T20:45:10.238Z,76779.94
2023-05-07T20:47:36.758Z,76792.19
2023-05-07T20:50:03.393Z,76779.94
2023-05-07T20:52:29.796Z,76800.34
2023-05-07T20:54:56.297Z,76800.34
2023-05-07T20:57:22.971Z,76802.38
2023-05-07T20:59:49.395Z,76810.53
2023-05-07T21:02:16.250Z,76810.53
2023-05-07T21:04:42.944Z,76830.94
2023-05-07T21:07:09.671Z,76843.16
2023-05-07T21:09:36.343Z,76839.09
2023-05-07T21:12:03.035Z,76849.28
2023-05-07T21:14:29.421Z,76843.16
2023-05-07T21:16:55.853Z,76843.16
2023-05-07T21:19:22.350Z,76861.50
2023-05-07T21:21:48.834Z,76861.50
2023-05-07T21:24:15.385Z,76865.59
2023-05-07T21:26:41.868Z,76867.63
2023-05-07T21:29:09.010Z,76877.81
2023-05-07T21:31:35.551Z,76883.94
2023-05-07T21:34:02.101Z,76881.91
2023-05-07T21:36:28.747Z,76888.03
2023-05-07T21:38:55.340Z,76879.88
2023-05-07T21:41:21.753Z,76888.03
2023-05-07T21:43:48.127Z,76894.13
2023-05-07T21:46:14.582Z,76902.28
2023-05-07T21:48:41.190Z,76904.34
2023-05-07T21:51:08.838Z,76906.38
2023-05-07T21:53:35.959Z,76906.38
2023-05-07T21:56:04.532Z,76910.47
2023-05-07T21:58:31.265Z,76912.50
2023-05-07T22:00:58.541Z,76920.66
2023-05-07T22:03:25.045Z,76926.78
2023-05-07T22:05:51.545Z,76926.78
2023-05-07T22:08:18.317Z,76920.66
2023-05-07T22:10:44.725Z,76928.81
2023-05-07T22:13:11.114Z,76943.09
2023-05-07T22:15:49.079Z,76939.00
2023-05-07T22:18:22.997Z,76949.19
2023-05-07T22:20:51.622Z,76943.09
2023-05-07T22:23:18.044Z,76949.19
2023-05-07T22:25:44.442Z,76951.25
2023-05-07T22:28:10.803Z,76959.41
2023-05-07T22:30:37.302Z,76959.41
2023-05-07T22:33:03.753Z,76965.50
2023-05-07T22:35:30.223Z,76985.91
2023-05-07T22:37:56.606Z,76987.94
2023-05-07T22:40:22.987Z,76992.03
2023-05-07T22:42:49.511Z,77002.22
2023-05-07T22:45:16.057Z,76998.13
2023-05-07T22:47:42.505Z,76989.97
2023-05-07T22:50:09.292Z,76996.09
2023-05-07T22:52:35.991Z,76989.97
2023-05-07T22:55:02.454Z,76987.94
2023-05-07T22:57:28.939Z,76992.03
2023-05-07T22:59:56.369Z,76992.03
2023-05-07T23:02:23.465Z,76996.09
2023-05-07T23:04:50.006Z,77002.22
2023-05-07T23:07:16.407Z,77004.25
2023-05-07T23:09:42.777Z,77006.31
2023-05-07T23:12:09.542Z,77002.22
2023-05-07T23:14:35.959Z,77008.34
2023-05-07T23:17:02.619Z,77008.34
2023-05-07T23:19:29.101Z,77012.41
2023-05-07T23:21:55.573Z,77012.41
2023-05-07T23:24:21.984Z,77020.56
2023-05-07T23:26:48.351Z,77022.63
2023-05-07T23:29:14.768Z,77022.63
2023-05-07T23:31:41.251Z,77018.53
2023-05-07T23:34:07.811Z,77028.72
2023-05-07T23:36:34.213Z,77028.72
2023-05-07T23:39:00.599Z,77024.66
2023-05-07T23:41:27.073Z,77028.72
2023-05-07T23:43:53.518Z,77024.66
2023-05-07T23:46:20.102Z,77028.72
2023-05-07T23:48:46.478Z,77034.84
2023-05-07T23:51:12.897Z,77036.88
2023-05-07T23:53:39.252Z,77040.97
2023-05-07T23:56:05.883Z,77047.09
2023-05-07T23:58:32.276Z,77051.16
